sensor_id;sensor_type;location;lat;lon;timestamp;temperature;humidity
9544;DHT22;30418;51.45933468;7.33152330;2022-07-29T00:04:10;24.50;40.70
9544;DHT22;30418;51.45933468;7.33152330;2022-07-29T00:07:41;24.50;40.80
9544;DHT22;30418;51.45933468;7.33152330;2022-07-29T00:11:02;24.50;40.90
9544;DHT22;30418;51.45933468;7.33152330;2022-07-29T00:14:56;24.50;40.90
9544;DHT22;30418;51.45933468;7.33152330;2022-07-29T00:18:01;24.40;41.10
9544;DHT22;30418;51.45933468;7.33152330;2022-07-29T00:21:09;24.40;40.80
9544;DHT22;30418;51.45933468;7.33152330;2022-07-29T00:24:42;24.30;40.80
9544;DHT22;30418;51.45933468;7.33152330;2022-07-29T00:28:24;24.30;40.90
9544;DHT22;30418;51.45933468;7.33152330;2022-07-29T00:32:17;24.30;40.90
9544;DHT22;30418;51.45933468;7.33152330;2022-07-29T00:35:49;24.30;41.00
9544;DHT22;30418;51.45933468;7.33152330;2022-07-29T00:39:29;24.30;40.90
9544;DHT22;30418;51.45933468;7.33152330;2022-07-29T00:43:06;24.20;40.90
9544;DHT22;30418;51.45933468;7.33152330;2022-07-29T00:46:26;24.20;40.90
9544;DHT22;30418;51.45933468;7.33152330;2022-07-29T00:50:13;24.20;40.90
9544;DHT22;30418;51.45933468;7.33152330;2022-07-29T00:53:17;24.20;41.00
9544;DHT22;30418;51.45933468;7.33152330;2022-07-29T00:56:43;24.20;41.10
9544;DHT22;30418;51.45933468;7.33152330;2022-07-29T01:00:09;24.20;41.20
9544;DHT22;30418;51.45933468;7.33152330;2022-07-29T01:02:40;24.20;41.30
9544;DHT22;30418;51.45933468;7.33152330;2022-07-29T01:05:11;24.10;41.10
9544;DHT22;30418;51.45933468;7.33152330;2022-07-29T01:07:40;24.20;41.30
9544;DHT22;30418;51.45933468;7.33152330;2022-07-29T01:10:10;24.10;41.20
9544;DHT22;30418;51.45933468;7.33152330;2022-07-29T01:12:42;24.10;41.20
9544;DHT22;30418;51.45933468;7.33152330;2022-07-29T01:15:12;24.20;41.40
9544;DHT22;30418;51.45933468;7.33152330;2022-07-29T01:17:45;24.10;41.20
9544;DHT22;30418;51.45933468;7.33152330;2022-07-29T01:20:26;24.10;41.20
9544;DHT22;30418;51.45933468;7.33152330;2022-07-29T01:23:22;24.10;41.20
9544;DHT22;30418;51.45933468;7.33152330;2022-07-29T01:26:32;24.10;41.30
9544;DHT22;30418;51.45933468;7.33152330;2022-07-29T01:29:12;24.10;41.40
9544;DHT22;30418;51.45933468;7.33152330;2022-07-29T01:32:01;24.10;41.40
9544;DHT22;30418;51.45933468;7.33152330;2022-07-29T01:34:38;24.00;41.30
9544;DHT22;30418;51.45933468;7.33152330;2022-07-29T01:37:18;24.00;41.20
9544;DHT22;30418;51.45933468;7.33152330;2022-07-29T01:39:49;24.00;41.30
9544;DHT22;30418;51.45933468;7.33152330;2022-07-29T01:42:27;24.00;41.50
9544;DHT22;30418;51.45933468;7.33152330;2022-07-29T01:45:05;24.00;41.60
9544;DHT22;30418;51.45933468;7.33152330;2022-07-29T01:47:40;24.00;41.60
9544;DHT22;30418;51.45933468;7.33152330;2022-07-29T01:50:16;24.00;41.60
9544;DHT22;30418;51.45933468;7.33152330;2022-07-29T01:52:52;24.00;41.60
9544;DHT22;30418;51.45933468;7.33152330;2022-07-29T01:55:27;24.00;41.70
9544;DHT22;30418;51.45933468;7.33152330;2022-07-29T01:57:59;23.90;41.50
9544;DHT22;30418;51.45933468;7.33152330;2022-07-29T02:00:30;23.90;42.30
9544;DHT22;30418;51.45933468;7.33152330;2022-07-29T02:03:02;23.90;41.60
9544;DHT22;30418;51.45933468;7.33152330;2022-07-29T02:05:35;23.90;41.70
9544;DHT22;30418;51.45933468;7.33152330;2022-07-29T02:08:05;23.90;41.70
9544;DHT22;30418;51.45933468;7.33152330;2022-07-29T02:10:35;23.80;41.70
9544;DHT22;30418;51.45933468;7.33152330;2022-07-29T02:13:05;23.80;41.70
9544;DHT22;30418;51.45933468;7.33152330;2022-07-29T02:15:36;23.80;41.80
9544;DHT22;30418;51.45933468;7.33152330;2022-07-29T02:18:09;23.80;41.90
9544;DHT22;30418;51.45933468;7.33152330;2022-07-29T02:20:42;23.80;41.90
9544;DHT22;30418;51.45933468;7.33152330;2022-07-29T02:23:15;23.80;41.90
9544;DHT22;30418;51.45933468;7.33152330;2022-07-29T02:25:48;23.80;41.90
9544;DHT22;30418;51.45933468;7.33152330;2022-07-29T02:28:19;23.80;41.90
9544;DHT22;30418;51.45933468;7.33152330;2022-07-29T02:30:52;23.70;41.80
9544;DHT22;30418;51.45933468;7.33152330;2022-07-29T02:33:23;23.70;41.80
9544;DHT22;30418;51.45933468;7.33152330;2022-07-29T02:35:52;23.70;41.80
9544;DHT22;30418;51.45933468;7.33152330;2022-07-29T02:38:22;23.70;41.90
9544;DHT22;30418;51.45933468;7.33152330;2022-07-29T02:41:13;23.60;41.90
9544;DHT22;30418;51.45933468;7.33152330;2022-07-29T02:43:48;23.60;42.00
9544;DHT22;30418;51.45933468;7.33152330;2022-07-29T02:46:27;23.60;42.10
9544;DHT22;30418;51.45933468;7.33152330;2022-07-29T02:49:04;23.50;42.10
9544;DHT22;30418;51.45933468;7.33152330;2022-07-29T02:51:46;23.50;42.20
9544;DHT22;30418;51.45933468;7.33152330;2022-07-29T02:54:24;23.50;42.20
9544;DHT22;30418;51.45933468;7.33152330;2022-07-29T02:56:57;23.50;42.40
9544;DHT22;30418;51.45933468;7.33152330;2022-07-29T02:59:30;23.50;42.40
9544;DHT22;30418;51.45933468;7.33152330;2022-07-29T03:02:02;23.40;42.30
9544;DHT22;30418;51.45933468;7.33152330;2022-07-29T03:04:32;23.40;42.30
9544;DHT22;30418;51.45933468;7.33152330;2022-07-29T03:07:03;23.40;42.40
9544;DHT22;30418;51.45933468;7.33152330;2022-07-29T03:09:33;23.40;42.50
9544;DHT22;30418;51.45933468;7.33152330;2022-07-29T03:12:02;23.40;42.60
9544;DHT22;30418;51.45933468;7.33152330;2022-07-29T03:14:32;23.40;42.60
9544;DHT22;30418;51.45933468;7.33152330;2022-07-29T03:17:02;23.40;42.60
9544;DHT22;30418;51.45933468;7.33152330;2022-07-29T03:19:32;23.40;42.60
9544;DHT22;30418;51.45933468;7.33152330;2022-07-29T03:22:01;23.40;42.60
9544;DHT22;30418;51.45933468;7.33152330;2022-07-29T03:24:32;23.40;42.60
9544;DHT22;30418;51.45933468;7.33152330;2022-07-29T03:27:01;23.40;42.60
9544;DHT22;30418;51.45933468;7.33152330;2022-07-29T03:29:31;23.40;42.70
9544;DHT22;30418;51.45933468;7.33152330;2022-07-29T03:32:04;23.30;42.60
9544;DHT22;30418;51.45933468;7.33152330;2022-07-29T03:34:35;23.40;42.60
9544;DHT22;30418;51.45933468;7.33152330;2022-07-29T03:37:05;23.30;42.60
9544;DHT22;30418;51.45933468;7.33152330;2022-07-29T03:39:38;23.30;42.60
9544;DHT22;30418;51.45933468;7.33152330;2022-07-29T03:42:11;23.30;42.60
9544;DHT22;30418;51.45933468;7.33152330;2022-07-29T03:44:43;23.30;42.60
9544;DHT22;30418;51.45933468;7.33152330;2022-07-29T03:47:17;23.30;42.60
9544;DHT22;30418;51.45933468;7.33152330;2022-07-29T03:49:50;23.30;42.60
9544;DHT22;30418;51.45933468;7.33152330;2022-07-29T03:52:21;23.30;42.70
9544;DHT22;30418;51.45933468;7.33152330;2022-07-29T03:54:49;23.20;42.60
9544;DHT22;30418;51.45933468;7.33152330;2022-07-29T03:57:19;23.20;42.70
9544;DHT22;30418;51.45933468;7.33152330;2022-07-29T03:59:49;23.20;42.90
9544;DHT22;30418;51.45933468;7.33152330;2022-07-29T04:02:20;23.20;43.00
9544;DHT22;30418;51.45933468;7.33152330;2022-07-29T04:04:56;23.20;43.30
9544;DHT22;30418;51.45933468;7.33152330;2022-07-29T04:07:25;23.10;43.20
9544;DHT22;30418;51.45933468;7.33152330;2022-07-29T04:09:53;23.10;43.20
9544;DHT22;30418;51.45933468;7.33152330;2022-07-29T04:12:22;23.10;43.20
9544;DHT22;30418;51.45933468;7.33152330;2022-07-29T04:14:50;23.00;43.20
9544;DHT22;30418;51.45933468;7.33152330;2022-07-29T04:17:20;23.00;43.30
9544;DHT22;30418;51.45933468;7.33152330;2022-07-29T04:19:49;22.90;43.30
9544;DHT22;30418;51.45933468;7.33152330;2022-07-29T04:22:18;22.90;43.50
9544;DHT22;30418;51.45933468;7.33152330;2022-07-29T04:24:49;22.90;43.50
9544;DHT22;30418;51.45933468;7.33152330;2022-07-29T04:27:17;22.90;43.50
9544;DHT22;30418;51.45933468;7.33152330;2022-07-29T04:29:47;22.80;44.20
9544;DHT22;30418;51.45933468;7.33152330;2022-07-29T04:32:24;22.80;43.80
9544;DHT22;30418;51.45933468;7.33152330;2022-07-29T04:34:53;22.80;44.40
9544;DHT22;30418;51.45933468;7.33152330;2022-07-29T04:37:22;22.80;44.70
9544;DHT22;30418;51.45933468;7.33152330;2022-07-29T04:39:51;22.70;45.20
9544;DHT22;30418;51.45933468;7.33152330;2022-07-29T04:42:19;22.70;45.50
9544;DHT22;30418;51.45933468;7.33152330;2022-07-29T04:44:53;22.70;45.60
9544;DHT22;30418;51.45933468;7.33152330;2022-07-29T04:47:23;22.60;45.50
9544;DHT22;30418;51.45933468;7.33152330;2022-07-29T04:49:52;22.60;45.90
9544;DHT22;30418;51.45933468;7.33152330;2022-07-29T04:52:20;22.50;46.00
9544;DHT22;30418;51.45933468;7.33152330;2022-07-29T04:54:49;22.50;46.00
9544;DHT22;30418;51.45933468;7.33152330;2022-07-29T04:57:18;22.50;46.20
9544;DHT22;30418;51.45933468;7.33152330;2022-07-29T04:59:47;22.40;46.40
9544;DHT22;30418;51.45933468;7.33152330;2022-07-29T05:02:15;22.40;46.20
9544;DHT22;30418;51.45933468;7.33152330;2022-07-29T05:04:45;22.40;46.70
9544;DHT22;30418;51.45933468;7.33152330;2022-07-29T05:07:14;22.40;47.20
9544;DHT22;30418;51.45933468;7.33152330;2022-07-29T05:09:43;22.30;47.40
9544;DHT22;30418;51.45933468;7.33152330;2022-07-29T05:12:12;22.30;47.70
9544;DHT22;30418;51.45933468;7.33152330;2022-07-29T05:14:41;22.20;47.50
9544;DHT22;30418;51.45933468;7.33152330;2022-07-29T05:17:10;22.20;48.40
9544;DHT22;30418;51.45933468;7.33152330;2022-07-29T05:19:38;22.10;48.00
9544;DHT22;30418;51.45933468;7.33152330;2022-07-29T05:22:08;22.00;47.80
9544;DHT22;30418;51.45933468;7.33152330;2022-07-29T05:24:37;22.00;48.10
9544;DHT22;30418;51.45933468;7.33152330;2022-07-29T05:27:06;21.90;48.20
9544;DHT22;30418;51.45933468;7.33152330;2022-07-29T05:29:34;21.80;48.20
9544;DHT22;30418;51.45933468;7.33152330;2022-07-29T05:32:12;21.70;48.40
9544;DHT22;30418;51.45933468;7.33152330;2022-07-29T05:34:41;21.60;48.50
9544;DHT22;30418;51.45933468;7.33152330;2022-07-29T05:37:19;21.60;48.50
9544;DHT22;30418;51.45933468;7.33152330;2022-07-29T05:39:48;21.50;48.80
9544;DHT22;30418;51.45933468;7.33152330;2022-07-29T05:42:25;21.40;48.80
9544;DHT22;30418;51.45933468;7.33152330;2022-07-29T05:44:54;21.40;49.20
9544;DHT22;30418;51.45933468;7.33152330;2022-07-29T05:47:23;21.40;49.70
9544;DHT22;30418;51.45933468;7.33152330;2022-07-29T05:49:52;21.40;50.10
9544;DHT22;30418;51.45933468;7.33152330;2022-07-29T05:52:22;21.40;50.20
9544;DHT22;30418;51.45933468;7.33152330;2022-07-29T05:54:51;21.50;50.60
9544;DHT22;30418;51.45933468;7.33152330;2022-07-29T05:57:21;21.50;50.40
9544;DHT22;30418;51.45933468;7.33152330;2022-07-29T05:59:51;21.50;50.30
9544;DHT22;30418;51.45933468;7.33152330;2022-07-29T06:02:19;21.60;50.60
9544;DHT22;30418;51.45933468;7.33152330;2022-07-29T06:04:48;21.60;50.50
9544;DHT22;30418;51.45933468;7.33152330;2022-07-29T06:07:17;21.70;50.60
9544;DHT22;30418;51.45933468;7.33152330;2022-07-29T06:09:47;21.70;50.80
9544;DHT22;30418;51.45933468;7.33152330;2022-07-29T06:12:16;21.70;51.20
9544;DHT22;30418;51.45933468;7.33152330;2022-07-29T06:14:46;21.80;51.30
9544;DHT22;30418;51.45933468;7.33152330;2022-07-29T06:17:20;21.90;51.60
9544;DHT22;30418;51.45933468;7.33152330;2022-07-29T06:19:48;21.90;51.40
9544;DHT22;30418;51.45933468;7.33152330;2022-07-29T06:22:17;22.00;51.10
9544;DHT22;30418;51.45933468;7.33152330;2022-07-29T06:24:47;22.10;51.30
9544;DHT22;30418;51.45933468;7.33152330;2022-07-29T06:27:16;22.10;51.60
9544;DHT22;30418;51.45933468;7.33152330;2022-07-29T06:29:44;22.10;51.60
9544;DHT22;30418;51.45933468;7.33152330;2022-07-29T06:32:13;22.20;51.50
9544;DHT22;30418;51.45933468;7.33152330;2022-07-29T06:34:41;22.20;51.40
9544;DHT22;30418;51.45933468;7.33152330;2022-07-29T06:37:15;22.30;51.50
9544;DHT22;30418;51.45933468;7.33152330;2022-07-29T06:39:46;22.30;51.40
9544;DHT22;30418;51.45933468;7.33152330;2022-07-29T06:42:15;22.40;51.50
9544;DHT22;30418;51.45933468;7.33152330;2022-07-29T06:44:43;22.40;51.40
9544;DHT22;30418;51.45933468;7.33152330;2022-07-29T06:47:12;22.40;51.00
9544;DHT22;30418;51.45933468;7.33152330;2022-07-29T06:49:41;22.40;51.00
9544;DHT22;30418;51.45933468;7.33152330;2022-07-29T06:52:09;22.40;50.80
9544;DHT22;30418;51.45933468;7.33152330;2022-07-29T06:54:38;22.40;50.90
9544;DHT22;30418;51.45933468;7.33152330;2022-07-29T06:57:15;22.40;50.90
9544;DHT22;30418;51.45933468;7.33152330;2022-07-29T06:59:43;22.40;51.20
9544;DHT22;30418;51.45933468;7.33152330;2022-07-29T07:02:12;22.40;51.30
9544;DHT22;30418;51.45933468;7.33152330;2022-07-29T07:04:41;22.40;51.30
9544;DHT22;30418;51.45933468;7.33152330;2022-07-29T07:07:09;22.40;51.60
9544;DHT22;30418;51.45933468;7.33152330;2022-07-29T07:09:38;22.50;51.80
9544;DHT22;30418;51.45933468;7.33152330;2022-07-29T07:12:07;22.50;51.80
9544;DHT22;30418;51.45933468;7.33152330;2022-07-29T07:14:37;22.50;52.00
9544;DHT22;30418;51.45933468;7.33152330;2022-07-29T07:17:07;22.60;52.00
9544;DHT22;30418;51.45933468;7.33152330;2022-07-29T07:19:35;22.60;51.80
9544;DHT22;30418;51.45933468;7.33152330;2022-07-29T07:22:04;22.60;51.70
9544;DHT22;30418;51.45933468;7.33152330;2022-07-29T07:24:32;22.70;52.00
9544;DHT22;30418;51.45933468;7.33152330;2022-07-29T07:27:01;22.70;51.90
9544;DHT22;30418;51.45933468;7.33152330;2022-07-29T07:29:30;22.80;51.80
9544;DHT22;30418;51.45933468;7.33152330;2022-07-29T07:32:00;22.80;51.50
9544;DHT22;30418;51.45933468;7.33152330;2022-07-29T07:34:29;22.90;51.60
9544;DHT22;30418;51.45933468;7.33152330;2022-07-29T07:36:58;22.90;51.80
9544;DHT22;30418;51.45933468;7.33152330;2022-07-29T07:39:26;23.00;51.80
9544;DHT22;30418;51.45933468;7.33152330;2022-07-29T07:41:55;23.00;52.00
9544;DHT22;30418;51.45933468;7.33152330;2022-07-29T07:44:24;23.10;52.00
9544;DHT22;30418;51.45933468;7.33152330;2022-07-29T07:46:52;23.10;51.90
9544;DHT22;30418;51.45933468;7.33152330;2022-07-29T07:49:22;23.20;51.80
9544;DHT22;30418;51.45933468;7.33152330;2022-07-29T07:51:51;23.20;52.00
9544;DHT22;30418;51.45933468;7.33152330;2022-07-29T07:54:20;23.20;51.70
9544;DHT22;30418;51.45933468;7.33152330;2022-07-29T07:56:48;23.30;51.70
9544;DHT22;30418;51.45933468;7.33152330;2022-07-29T07:59:19;23.30;51.70
9544;DHT22;30418;51.45933468;7.33152330;2022-07-29T08:01:48;23.30;51.90
9544;DHT22;30418;51.45933468;7.33152330;2022-07-29T08:04:23;23.30;52.10
9544;DHT22;30418;51.45933468;7.33152330;2022-07-29T08:06:56;23.30;52.50
9544;DHT22;30418;51.45933468;7.33152330;2022-07-29T08:09:26;23.30;52.40
9544;DHT22;30418;51.45933468;7.33152330;2022-07-29T08:11:56;23.30;52.40
9544;DHT22;30418;51.45933468;7.33152330;2022-07-29T08:14:26;23.30;52.10
9544;DHT22;30418;51.45933468;7.33152330;2022-07-29T08:16:54;23.30;51.90
9544;DHT22;30418;51.45933468;7.33152330;2022-07-29T08:19:25;23.30;51.90
9544;DHT22;30418;51.45933468;7.33152330;2022-07-29T08:21:53;23.30;51.70
9544;DHT22;30418;51.45933468;7.33152330;2022-07-29T08:24:22;23.30;51.80
9544;DHT22;30418;51.45933468;7.33152330;2022-07-29T08:27:08;23.30;51.70
9544;DHT22;30418;51.45933468;7.33152330;2022-07-29T08:29:57;23.40;52.00
9544;DHT22;30418;51.45933468;7.33152330;2022-07-29T08:32:26;23.40;52.00
9544;DHT22;30418;51.45933468;7.33152330;2022-07-29T08:35:16;23.40;51.80
9544;DHT22;30418;51.45933468;7.33152330;2022-07-29T08:37:45;23.50;51.60
9544;DHT22;30418;51.45933468;7.33152330;2022-07-29T08:40:14;23.50;51.50
9544;DHT22;30418;51.45933468;7.33152330;2022-07-29T08:42:43;23.50;51.30
9544;DHT22;30418;51.45933468;7.33152330;2022-07-29T08:45:11;23.60;51.30
9544;DHT22;30418;51.45933468;7.33152330;2022-07-29T08:47:41;23.60;51.00
9544;DHT22;30418;51.45933468;7.33152330;2022-07-29T08:50:13;23.60;51.10
9544;DHT22;30418;51.45933468;7.33152330;2022-07-29T08:52:44;23.60;51.00
9544;DHT22;30418;51.45933468;7.33152330;2022-07-29T08:55:17;23.70;51.30
9544;DHT22;30418;51.45933468;7.33152330;2022-07-29T08:57:48;23.70;51.50
9544;DHT22;30418;51.45933468;7.33152330;2022-07-29T09:00:25;23.70;51.60
9544;DHT22;30418;51.45933468;7.33152330;2022-07-29T09:02:57;23.70;51.40
9544;DHT22;30418;51.45933468;7.33152330;2022-07-29T09:05:29;23.70;51.40
9544;DHT22;30418;51.45933468;7.33152330;2022-07-29T09:08:08;23.70;51.10
9544;DHT22;30418;51.45933468;7.33152330;2022-07-29T09:10:37;23.70;51.10
9544;DHT22;30418;51.45933468;7.33152330;2022-07-29T09:13:06;23.70;51.00
9544;DHT22;30418;51.45933468;7.33152330;2022-07-29T09:15:35;23.70;51.10
9544;DHT22;30418;51.45933468;7.33152330;2022-07-29T09:18:04;23.60;51.00
9544;DHT22;30418;51.45933468;7.33152330;2022-07-29T09:20:32;23.60;51.00
9544;DHT22;30418;51.45933468;7.33152330;2022-07-29T09:23:16;23.60;51.20
9544;DHT22;30418;51.45933468;7.33152330;2022-07-29T09:25:50;23.60;51.40
9544;DHT22;30418;51.45933468;7.33152330;2022-07-29T09:28:19;23.60;51.60
9544;DHT22;30418;51.45933468;7.33152330;2022-07-29T09:30:52;23.60;52.00
9544;DHT22;30418;51.45933468;7.33152330;2022-07-29T09:33:22;23.60;52.30
9544;DHT22;30418;51.45933468;7.33152330;2022-07-29T09:35:59;23.60;52.50
9544;DHT22;30418;51.45933468;7.33152330;2022-07-29T09:38:31;23.50;52.60
9544;DHT22;30418;51.45933468;7.33152330;2022-07-29T09:41:02;23.60;52.40
9544;DHT22;30418;51.45933468;7.33152330;2022-07-29T09:43:33;23.60;51.90
9544;DHT22;30418;51.45933468;7.33152330;2022-07-29T09:46:11;23.60;51.70
9544;DHT22;30418;51.45933468;7.33152330;2022-07-29T09:48:40;23.60;51.60
9544;DHT22;30418;51.45933468;7.33152330;2022-07-29T09:51:17;23.60;51.70
9544;DHT22;30418;51.45933468;7.33152330;2022-07-29T09:53:54;23.60;52.10
9544;DHT22;30418;51.45933468;7.33152330;2022-07-29T09:56:38;23.60;51.70
9544;DHT22;30418;51.45933468;7.33152330;2022-07-29T09:59:08;23.60;51.80
9544;DHT22;30418;51.45933468;7.33152330;2022-07-29T10:01:38;23.60;51.50
9544;DHT22;30418;51.45933468;7.33152330;2022-07-29T10:04:06;23.60;51.60
9544;DHT22;30418;51.45933468;7.33152330;2022-07-29T10:06:40;23.50;51.90
9544;DHT22;30418;51.45933468;7.33152330;2022-07-29T10:09:32;23.50;51.90
9544;DHT22;30418;51.45933468;7.33152330;2022-07-29T10:12:09;23.50;51.80
9544;DHT22;30418;51.45933468;7.33152330;2022-07-29T10:14:41;23.50;51.90
9544;DHT22;30418;51.45933468;7.33152330;2022-07-29T10:17:10;23.40;51.80
9544;DHT22;30418;51.45933468;7.33152330;2022-07-29T10:19:39;23.40;51.90
9544;DHT22;30418;51.45933468;7.33152330;2022-07-29T10:22:10;23.40;51.80
9544;DHT22;30418;51.45933468;7.33152330;2022-07-29T10:24:40;23.40;52.00
9544;DHT22;30418;51.45933468;7.33152330;2022-07-29T10:27:09;23.30;51.90
9544;DHT22;30418;51.45933468;7.33152330;2022-07-29T10:29:38;23.30;51.70
9544;DHT22;30418;51.45933468;7.33152330;2022-07-29T10:32:22;23.30;51.80
9544;DHT22;30418;51.45933468;7.33152330;2022-07-29T10:35:09;23.30;52.30
9544;DHT22;30418;51.45933468;7.33152330;2022-07-29T10:38:03;23.20;52.20
9544;DHT22;30418;51.45933468;7.33152330;2022-07-29T10:41:18;23.20;52.30
9544;DHT22;30418;51.45933468;7.33152330;2022-07-29T10:44:15;23.20;52.00
9544;DHT22;30418;51.45933468;7.33152330;2022-07-29T10:47:05;23.20;52.00
9544;DHT22;30418;51.45933468;7.33152330;2022-07-29T10:49:33;23.20;51.90
9544;DHT22;30418;51.45933468;7.33152330;2022-07-29T10:52:08;23.20;52.00
9544;DHT22;30418;51.45933468;7.33152330;2022-07-29T10:54:42;23.20;52.10
9544;DHT22;30418;51.45933468;7.33152330;2022-07-29T10:57:23;23.10;52.20
9544;DHT22;30418;51.45933468;7.33152330;2022-07-29T11:00:28;23.10;52.10
9544;DHT22;30418;51.45933468;7.33152330;2022-07-29T11:02:58;23.10;52.20
9544;DHT22;30418;51.45933468;7.33152330;2022-07-29T11:05:54;23.10;52.10
9544;DHT22;30418;51.45933468;7.33152330;2022-07-29T11:08:26;23.10;52.40
9544;DHT22;30418;51.45933468;7.33152330;2022-07-29T11:14:05;23.10;52.60
9544;DHT22;30418;51.45933468;7.33152330;2022-07-29T11:16:58;23.10;52.30
9544;DHT22;30418;51.45933468;7.33152330;2022-07-29T11:19:33;23.10;52.90
9544;DHT22;30418;51.45933468;7.33152330;2022-07-29T11:22:08;23.20;53.30
9544;DHT22;30418;51.45933468;7.33152330;2022-07-29T11:24:42;23.20;52.70
9544;DHT22;30418;51.45933468;7.33152330;2022-07-29T11:27:18;23.20;52.70
9544;DHT22;30418;51.45933468;7.33152330;2022-07-29T11:29:55;23.20;52.40
9544;DHT22;30418;51.45933468;7.33152330;2022-07-29T11:32:36;23.20;52.90
9544;DHT22;30418;51.45933468;7.33152330;2022-07-29T11:35:15;23.20;52.90
9544;DHT22;30418;51.45933468;7.33152330;2022-07-29T11:38:25;23.20;53.20
9544;DHT22;30418;51.45933468;7.33152330;2022-07-29T11:41:22;23.20;53.10
9544;DHT22;30418;51.45933468;7.33152330;2022-07-29T11:43:54;23.20;52.90
9544;DHT22;30418;51.45933468;7.33152330;2022-07-29T11:46:48;23.20;52.70
9544;DHT22;30418;51.45933468;7.33152330;2022-07-29T11:49:21;23.20;53.40
9544;DHT22;30418;51.45933468;7.33152330;2022-07-29T11:51:59;23.20;52.90
9544;DHT22;30418;51.45933468;7.33152330;2022-07-29T11:54:50;23.20;53.10
9544;DHT22;30418;51.45933468;7.33152330;2022-07-29T11:57:26;23.20;53.80
9544;DHT22;30418;51.45933468;7.33152330;2022-07-29T12:00:04;23.20;53.20
9544;DHT22;30418;51.45933468;7.33152330;2022-07-29T12:02:43;23.20;53.10
9544;DHT22;30418;51.45933468;7.33152330;2022-07-29T12:05:15;23.20;53.30
9544;DHT22;30418;51.45933468;7.33152330;2022-07-29T12:08:14;23.30;53.50
9544;DHT22;30418;51.45933468;7.33152330;2022-07-29T12:10:47;23.30;53.60
9544;DHT22;30418;51.45933468;7.33152330;2022-07-29T12:13:19;23.30;53.20
9544;DHT22;30418;51.45933468;7.33152330;2022-07-29T12:16:04;23.30;53.10
9544;DHT22;30418;51.45933468;7.33152330;2022-07-29T12:18:34;23.30;52.90
9544;DHT22;30418;51.45933468;7.33152330;2022-07-29T12:21:03;23.40;52.90
9544;DHT22;30418;51.45933468;7.33152330;2022-07-29T12:23:32;23.40;52.80
9544;DHT22;30418;51.45933468;7.33152330;2022-07-29T12:26:03;23.50;52.90
9544;DHT22;30418;51.45933468;7.33152330;2022-07-29T12:28:37;23.60;53.00
9544;DHT22;30418;51.45933468;7.33152330;2022-07-29T12:31:13;23.60;52.80
9544;DHT22;30418;51.45933468;7.33152330;2022-07-29T12:34:03;23.70;52.70
9544;DHT22;30418;51.45933468;7.33152330;2022-07-29T12:36:32;23.80;52.60
9544;DHT22;30418;51.45933468;7.33152330;2022-07-29T12:39:01;23.80;52.60
9544;DHT22;30418;51.45933468;7.33152330;2022-07-29T12:41:30;23.80;52.50
9544;DHT22;30418;51.45933468;7.33152330;2022-07-29T12:43:59;23.90;52.50
9544;DHT22;30418;51.45933468;7.33152330;2022-07-29T12:46:28;23.90;52.50
9544;DHT22;30418;51.45933468;7.33152330;2022-07-29T12:48:56;23.90;52.20
9544;DHT22;30418;51.45933468;7.33152330;2022-07-29T12:51:31;23.90;52.30
9544;DHT22;30418;51.45933468;7.33152330;2022-07-29T12:54:05;24.00;52.70
9544;DHT22;30418;51.45933468;7.33152330;2022-07-29T12:56:37;24.00;52.70
9544;DHT22;30418;51.45933468;7.33152330;2022-07-29T12:59:12;24.00;52.50
9544;DHT22;30418;51.45933468;7.33152330;2022-07-29T13:01:42;24.10;52.70
9544;DHT22;30418;51.45933468;7.33152330;2022-07-29T13:04:24;24.10;52.70
9544;DHT22;30418;51.45933468;7.33152330;2022-07-29T13:07:00;24.20;52.90
9544;DHT22;30418;51.45933468;7.33152330;2022-07-29T13:09:38;24.20;52.80
9544;DHT22;30418;51.45933468;7.33152330;2022-07-29T13:12:09;24.30;52.70
9544;DHT22;30418;51.45933468;7.33152330;2022-07-29T13:14:40;24.40;52.60
9544;DHT22;30418;51.45933468;7.33152330;2022-07-29T13:17:12;24.40;52.50
9544;DHT22;30418;51.45933468;7.33152330;2022-07-29T13:19:44;24.50;52.40
9544;DHT22;30418;51.45933468;7.33152330;2022-07-29T13:22:17;24.50;52.30
9544;DHT22;30418;51.45933468;7.33152330;2022-07-29T13:24:48;24.50;52.40
9544;DHT22;30418;51.45933468;7.33152330;2022-07-29T13:27:18;24.60;52.50
9544;DHT22;30418;51.45933468;7.33152330;2022-07-29T13:29:48;24.70;52.40
9544;DHT22;30418;51.45933468;7.33152330;2022-07-29T13:32:18;24.70;52.50
9544;DHT22;30418;51.45933468;7.33152330;2022-07-29T13:34:55;24.80;52.50
9544;DHT22;30418;51.45933468;7.33152330;2022-07-29T13:37:25;24.80;52.30
9544;DHT22;30418;51.45933468;7.33152330;2022-07-29T13:39:57;24.80;52.30
9544;DHT22;30418;51.45933468;7.33152330;2022-07-29T13:42:26;24.80;52.30
9544;DHT22;30418;51.45933468;7.33152330;2022-07-29T13:44:55;24.90;51.90
9544;DHT22;30418;51.45933468;7.33152330;2022-07-29T13:47:24;25.00;52.10
9544;DHT22;30418;51.45933468;7.33152330;2022-07-29T13:49:59;25.10;52.10
9544;DHT22;30418;51.45933468;7.33152330;2022-07-29T13:52:29;25.20;52.10
9544;DHT22;30418;51.45933468;7.33152330;2022-07-29T13:54:58;25.20;51.80
9544;DHT22;30418;51.45933468;7.33152330;2022-07-29T13:57:27;25.20;51.70
9544;DHT22;30418;51.45933468;7.33152330;2022-07-29T13:59:56;25.30;51.50
9544;DHT22;30418;51.45933468;7.33152330;2022-07-29T14:02:26;25.30;51.20
9544;DHT22;30418;51.45933468;7.33152330;2022-07-29T14:04:55;25.40;51.40
9544;DHT22;30418;51.45933468;7.33152330;2022-07-29T14:07:24;25.40;51.30
9544;DHT22;30418;51.45933468;7.33152330;2022-07-29T14:09:54;25.40;51.20
9544;DHT22;30418;51.45933468;7.33152330;2022-07-29T14:12:22;25.50;51.00
9544;DHT22;30418;51.45933468;7.33152330;2022-07-29T14:14:51;25.50;51.20
9544;DHT22;30418;51.45933468;7.33152330;2022-07-29T14:17:20;25.60;51.30
9544;DHT22;30418;51.45933468;7.33152330;2022-07-29T14:19:49;25.60;51.10
9544;DHT22;30418;51.45933468;7.33152330;2022-07-29T14:22:18;25.70;51.20
9544;DHT22;30418;51.45933468;7.33152330;2022-07-29T14:24:51;25.70;50.80
9544;DHT22;30418;51.45933468;7.33152330;2022-07-29T14:27:22;25.80;50.70